Dan L — WDG4449 — position and weather

sailwx.info

Track history (hours):
 
Tides and Currents Weather Stations Pressure Air Temp Water Temp Dewpoint Dewpoint Depression Visibility Wind Speed Wind Dir Waves Ship Positions

Dan L

Owner: Enterprise Marine Services, LLC, San Antonio, TX. More information available from US FCC via Universal Licensing System and Coast Guard Vessel Documentation Center.

Last reported at 2018-Jul-12 23:48 UTC. Time now 2018-Jul-17 05:35 UTC.
Position N 32°41' W 091°06'.

Length 306 m; draft 3 m.

Type: Tug. MMSI: 367536660.

Date/timePositionNaut miles runAvg speedWind from/ knotsBaromVisibWave heightAir tempDewpointWater temp
2018-Jul-12 23:48N 32°41' W 091°06'1 4.9
2018-Jul-12 23:30N 32°40' W 091°07'3 4.4
2018-Jul-12 22:46N 32°37' W 091°09'1 5.2
2018-Jul-12 22:30N 32°36' W 091°08'3 5.3
2018-Jul-12 22:00N 32°34' W 091°06'2 4.9
2018-Jul-12 21:30N 32°31' W 091°06'3 5.2
2018-Jul-12 21:00N 32°29' W 091°07'3 5.3
2018-Jul-12 20:30N 32°27' W 091°05'3 5.3
2018-Jul-12 20:00N 32°26' W 091°02'2 4.8
2018-Jul-12 19:30N 32°24' W 090°60'3 5.1
2018-Jul-12 19:00N 32°22' W 091°00'3 5.2
2018-Jul-12 18:30N 32°21' W 090°57'2 4.7
2018-Jul-12 18:00N 32°20' W 090°55'2 3.8
2018-Jul-12 17:30N 32°18' W 090°55'3 5.1
2018-Jul-12 17:00N 32°17' W 090°57'2 4.6
2018-Jul-12 16:29N 32°15' W 090°59'3 5.4
2018-Jul-12 16:00N 32°12' W 090°59'2 4.3
2018-Jul-12 15:30N 32°10' W 090°60'2 4.7
2018-Jul-12 15:00N 32°08' W 091°01'2 4.4
2018-Jul-12 14:29N 32°08' W 091°03'2 4.8
2018-Jul-12 14:00N 32°08' W 091°06'2 3.9
2018-Jul-12 13:30N 32°06' W 091°06'3 5.1
2018-Jul-12 12:58N 32°04' W 091°04'3 3.7
2018-Jul-12 12:09N 32°01' W 091°05'1 5.0
2018-Jul-12 11:59N 32°00' W 091°05'9 4.4
2018-Jul-12 09:59N 31°54' W 091°12'13 3.4
2018-Jul-12 06:06N 31°44' W 091°23'  
2018-Jul-04 03:45N 31°58' W 091°11'5 7.9
2018-Jul-04 03:04N 31°60' W 091°05'0 8.6
2018-Jul-04 03:00N 32°00' W 091°05'5 9.8
2018-Jul-04 02:30N 32°05' W 091°05'3 5.0
2018-Jul-04 01:59N 32°08' W 091°04'3 7.3
2018-Jul-04 01:31N 32°09' W 091°00'4 9.0
2018-Jul-04 01:01N 32°13' W 090°59'4 8.2
2018-Jul-04 00:31N 32°17' W 090°57'4 8.3
2018-Jul-04 00:01N 32°20' W 090°54'3 6.7
2018-Jul-03 23:31N 32°21' W 090°58'3 5.8
2018-Jul-03 23:00N 32°23' W 090°60'4 7.4
2018-Jul-03 22:30N 32°26' W 091°03'4 8.5
2018-Jul-03 22:01N 32°29' W 091°07'5 8.5
2018-Jul-03 21:29N 32°33' W 091°06'4 8.5
2018-Jul-03 21:00N 32°36' W 091°09'4 7.6
2018-Jul-03 20:31N 32°40' W 091°08'  
Track history (hours):
 
Tides and Currents Weather Stations Pressure Air Temp Water Temp Dewpoint Dewpoint Depression Visibility Wind Speed Wind Dir Waves Ship Positions

Dan L

Owner: Enterprise Marine Services, LLC, San Antonio, TX. More information available from US FCC via Universal Licensing System and Coast Guard Vessel Documentation Center.

Last reported at 2018-Jul-12 23:48 UTC. Time now 2018-Jul-17 05:35 UTC.
Position N 32°41' W 091°06'.

Length 306 m; draft 3 m.

Type: Tug. MMSI: 367536660.

Date/timePositionNaut miles runAvg speedWind from/ knotsBaromVisibWave heightAir tempDewpointWater temp
2018-Jul-12 23:48N 32°41' W 091°06'1 4.9
2018-Jul-12 23:30N 32°40' W 091°07'3 4.4
2018-Jul-12 22:46N 32°37' W 091°09'1 5.2
2018-Jul-12 22:30N 32°36' W 091°08'3 5.3
2018-Jul-12 22:00N 32°34' W 091°06'2 4.9
2018-Jul-12 21:30N 32°31' W 091°06'3 5.2
2018-Jul-12 21:00N 32°29' W 091°07'3 5.3
2018-Jul-12 20:30N 32°27' W 091°05'3 5.3
2018-Jul-12 20:00N 32°26' W 091°02'2 4.8
2018-Jul-12 19:30N 32°24' W 090°60'3 5.1
2018-Jul-12 19:00N 32°22' W 091°00'3 5.2
2018-Jul-12 18:30N 32°21' W 090°57'2 4.7
2018-Jul-12 18:00N 32°20' W 090°55'2 3.8
2018-Jul-12 17:30N 32°18' W 090°55'3 5.1
2018-Jul-12 17:00N 32°17' W 090°57'2 4.6
2018-Jul-12 16:29N 32°15' W 090°59'3 5.4
2018-Jul-12 16:00N 32°12' W 090°59'2 4.3
2018-Jul-12 15:30N 32°10' W 090°60'2 4.7
2018-Jul-12 15:00N 32°08' W 091°01'2 4.4
2018-Jul-12 14:29N 32°08' W 091°03'2 4.8
2018-Jul-12 14:00N 32°08' W 091°06'2 3.9
2018-Jul-12 13:30N 32°06' W 091°06'3 5.1
2018-Jul-12 12:58N 32°04' W 091°04'3 3.7
2018-Jul-12 12:09N 32°01' W 091°05'1 5.0
2018-Jul-12 11:59N 32°00' W 091°05'9 4.4
2018-Jul-12 09:59N 31°54' W 091°12'13 3.4
2018-Jul-12 06:06N 31°44' W 091°23'  
2018-Jul-04 03:45N 31°58' W 091°11'5 7.9
2018-Jul-04 03:04N 31°60' W 091°05'0 8.6
2018-Jul-04 03:00N 32°00' W 091°05'5 9.8
2018-Jul-04 02:30N 32°05' W 091°05'3 5.0
2018-Jul-04 01:59N 32°08' W 091°04'3 7.3
2018-Jul-04 01:31N 32°09' W 091°00'4 9.0
2018-Jul-04 01:01N 32°13' W 090°59'4 8.2
2018-Jul-04 00:31N 32°17' W 090°57'4 8.3
2018-Jul-04 00:01N 32°20' W 090°54'3 6.7
2018-Jul-03 23:31N 32°21' W 090°58'3 5.8
2018-Jul-03 23:00N 32°23' W 090°60'4 7.4
2018-Jul-03 22:30N 32°26' W 091°03'4 8.5
2018-Jul-03 22:01N 32°29' W 091°07'5 8.5
2018-Jul-03 21:29N 32°33' W 091°06'4 8.5
2018-Jul-03 21:00N 32°36' W 091°09'4 7.6
2018-Jul-03 20:31N 32°40' W 091°08'  

Dump ship's entire track history